createdAt,value
2018-12-31T00:01:44.333Z,9.13
2018-12-31T00:04:12.654Z,9.11
2018-12-31T00:06:40.965Z,9.11
2018-12-31T00:09:09.285Z,9.12
2018-12-31T00:11:37.586Z,9.13
2018-12-31T00:14:05.974Z,9.16
2018-12-31T00:16:34.275Z,9.14
2018-12-31T00:19:02.649Z,9.13
2018-12-31T00:21:30.975Z,9.14
2018-12-31T00:23:59.520Z,9.16
2018-12-31T00:26:28.095Z,9.16
2018-12-31T00:28:56.382Z,9.18
2018-12-31T00:31:24.682Z,9.18
2018-12-31T00:33:53.007Z,9.21
2018-12-31T00:36:21.311Z,9.23
2018-12-31T00:38:49.626Z,9.25
2018-12-31T00:41:17.916Z,9.26
2018-12-31T00:43:46.201Z,9.22
2018-12-31T00:46:14.516Z,9.16
2018-12-31T00:48:42.810Z,9.15
2018-12-31T00:51:11.132Z,9.18
2018-12-31T00:53:39.422Z,9.17
2018-12-31T00:56:07.746Z,9.22
2018-12-31T00:58:36.305Z,9.17
2018-12-31T01:01:04.599Z,9.18
2018-12-31T01:03:32.907Z,9.22
2018-12-31T01:06:01.215Z,9.25
2018-12-31T01:08:29.533Z,9.29
2018-12-31T01:10:57.837Z,9.31
2018-12-31T01:13:26.393Z,9.32
2018-12-31T01:15:54.698Z,9.30
2018-12-31T01:18:23.027Z,9.32
2018-12-31T01:20:51.329Z,9.33
2018-12-31T01:23:19.654Z,9.33
2018-12-31T01:25:47.928Z,9.33
2018-12-31T01:28:16.234Z,9.33
2018-12-31T01:30:44.539Z,9.31
2018-12-31T01:33:12.848Z,9.32
2018-12-31T01:35:41.157Z,9.34
2018-12-31T01:38:09.450Z,9.36
2018-12-31T01:40:37.769Z,9.37
2018-12-31T01:43:06.139Z,9.36
2018-12-31T01:45:34.522Z,9.35
2018-12-31T01:48:02.813Z,9.31
2018-12-31T01:50:31.134Z,9.32
2018-12-31T01:52:59.420Z,9.34
2018-12-31T01:55:27.731Z,9.37
2018-12-31T01:57:56.106Z,9.40
2018-12-31T02:00:24.418Z,9.40
2018-12-31T02:02:52.724Z,9.43
2018-12-31T02:05:21.031Z,9.45
2018-12-31T02:07:49.337Z,9.45
2018-12-31T02:10:17.626Z,9.45
2018-12-31T02:12:45.950Z,9.46
2018-12-31T02:15:14.242Z,9.46
2018-12-31T02:17:42.544Z,9.42
2018-12-31T02:20:10.855Z,9.42
2018-12-31T02:22:40.828Z,9.40
2018-12-31T02:25:09.041Z,9.39
2018-12-31T02:27:37.334Z,9.40
2018-12-31T02:30:05.679Z,9.40
2018-12-31T02:32:33.931Z,9.43
2018-12-31T02:35:02.253Z,9.43
2018-12-31T02:37:30.545Z,9.44
2018-12-31T02:39:59.123Z,9.43
2018-12-31T02:42:27.412Z,9.45
2018-12-31T02:44:55.738Z,9.48
2018-12-31T02:47:24.026Z,9.49
2018-12-31T02:49:52.344Z,9.48
2018-12-31T02:52:20.635Z,9.49
2018-12-31T02:54:48.951Z,9.51
2018-12-31T02:57:17.261Z,9.54
2018-12-31T02:59:45.650Z,9.57
2018-12-31T03:02:13.957Z,9.56
2018-12-31T03:04:42.265Z,9.53
2018-12-31T03:07:10.562Z,9.49
2018-12-31T03:09:38.851Z,9.45
2018-12-31T03:12:07.168Z,9.48
2018-12-31T03:14:35.543Z,9.46
2018-12-31T03:17:03.863Z,9.48
2018-12-31T03:19:32.150Z,9.51
2018-12-31T03:22:00.458Z,9.50
2018-12-31T03:24:28.994Z,9.49
2018-12-31T03:26:57.297Z,9.48
2018-12-31T03:29:25.597Z,9.49
2018-12-31T03:31:54.176Z,9.52
2018-12-31T03:34:22.471Z,9.53
2018-12-31T03:36:50.780Z,9.51
2018-12-31T03:39:19.085Z,9.48
2018-12-31T03:41:47.555Z,9.47
2018-12-31T03:44:15.876Z,9.50
2018-12-31T03:46:44.188Z,9.52
2018-12-31T03:49:12.508Z,9.56
2018-12-31T03:51:40.808Z,9.57
2018-12-31T03:54:09.121Z,9.57
2018-12-31T03:56:37.425Z,9.58
2018-12-31T03:59:05.731Z,9.57
2018-12-31T04:01:34.021Z,9.55
2018-12-31T04:04:02.324Z,9.53
2018-12-31T04:06:30.628Z,9.54
2018-12-31T04:08:58.936Z,9.57
2018-12-31T04:11:27.258Z,9.58
2018-12-31T04:13:55.561Z,9.58
2018-12-31T04:16:23.862Z,9.61
2018-12-31T04:18:52.179Z,9.60
2018-12-31T04:21:20.733Z,9.59
2018-12-31T04:23:49.054Z,9.57
2018-12-31T04:26:17.366Z,9.54
2018-12-31T04:28:45.693Z,9.53
2018-12-31T04:31:14.243Z,9.51
2018-12-31T04:33:42.568Z,9.50
2018-12-31T04:36:10.867Z,9.53
2018-12-31T04:38:39.425Z,9.54
2018-12-31T04:41:07.729Z,9.53
2018-12-31T04:43:36.018Z,9.55
2018-12-31T04:46:04.336Z,9.58
2018-12-31T04:48:32.623Z,9.60
2018-12-31T04:51:00.938Z,9.61
2018-12-31T04:53:29.239Z,9.60
2018-12-31T04:55:57.567Z,9.60
2018-12-31T04:58:25.870Z,9.60
2018-12-31T05:00:54.157Z,9.61
2018-12-31T05:03:22.476Z,9.64
2018-12-31T05:05:50.778Z,9.67
2018-12-31T05:08:19.350Z,9.68
2018-12-31T05:10:47.647Z,9.72
2018-12-31T05:13:15.950Z,9.73
2018-12-31T05:15:44.279Z,9.75
2018-12-31T05:18:12.583Z,9.75
2018-12-31T05:20:40.898Z,9.74
2018-12-31T05:23:09.193Z,9.75
2018-12-31T05:25:37.497Z,9.76
2018-12-31T05:28:05.800Z,9.75
2018-12-31T05:30:34.195Z,9.73
2018-12-31T05:33:02.444Z,9.68
2018-12-31T05:35:30.771Z,9.68
2018-12-31T05:37:59.075Z,9.68
2018-12-31T05:40:27.383Z,9.67
2018-12-31T05:42:55.681Z,9.70
2018-12-31T05:45:23.994Z,9.72
2018-12-31T05:47:52.295Z,9.75
2018-12-31T05:50:20.581Z,9.75
2018-12-31T05:52:48.901Z,9.76
2018-12-31T05:55:17.429Z,9.77
2018-12-31T05:57:45.741Z,9.80
2018-12-31T06:00:14.042Z,9.83
2018-12-31T06:02:45.065Z,9.84
2018-12-31T06:05:13.353Z,9.86
2018-12-31T06:07:41.665Z,9.86
2018-12-31T06:10:09.956Z,9.86
2018-12-31T06:12:38.274Z,9.85
2018-12-31T06:15:06.902Z,9.83
2018-12-31T06:17:35.214Z,9.85
2018-12-31T06:20:03.536Z,9.86
2018-12-31T06:22:32.065Z,9.84
2018-12-31T06:25:00.370Z,9.85
2018-12-31T06:27:28.927Z,9.81
2018-12-31T06:29:57.247Z,9.84
2018-12-31T06:32:25.539Z,9.86
2018-12-31T06:34:53.862Z,9.89
2018-12-31T06:37:22.185Z,9.91
2018-12-31T06:39:50.754Z,9.93
2018-12-31T06:42:19.057Z,9.92
2018-12-31T06:44:47.369Z,9.94
2018-12-31T06:47:15.682Z,9.92
2018-12-31T06:49:43.970Z,9.92
2018-12-31T06:52:12.278Z,9.93
2018-12-31T06:54:40.568Z,9.94
2018-12-31T06:57:08.881Z,9.94
2018-12-31T06:59:37.170Z,9.94
2018-12-31T07:02:05.477Z,9.93
2018-12-31T07:04:33.781Z,9.93
2018-12-31T07:07:02.100Z,9.93
2018-12-31T07:09:30.410Z,9.92
2018-12-31T07:11:58.717Z,9.92
2018-12-31T07:14:27.017Z,9.91
2018-12-31T07:16:55.321Z,9.88
2018-12-31T07:19:23.624Z,9.85
2018-12-31T07:21:51.910Z,9.85
2018-12-31T07:24:20.225Z,9.84
2018-12-31T07:26:48.513Z,9.85
2018-12-31T07:29:16.824Z,9.85
2018-12-31T07:31:45.377Z,9.86
2018-12-31T07:34:13.697Z,9.87
2018-12-31T07:36:41.997Z,9.87
2018-12-31T07:39:10.306Z,9.89
2018-12-31T07:41:38.593Z,9.88
2018-12-31T07:44:07.141Z,9.90
2018-12-31T07:46:35.462Z,9.90
2018-12-31T07:49:03.769Z,9.89
2018-12-31T07:51:32.085Z,9.89
2018-12-31T07:54:00.375Z,9.90
2018-12-31T07:56:28.685Z,9.90
2018-12-31T07:58:56.974Z,9.92
2018-12-31T08:01:25.267Z,9.92
2018-12-31T08:03:53.586Z,9.94
2018-12-31T08:06:21.878Z,9.96
2018-12-31T08:08:50.197Z,9.96
2018-12-31T08:11:18.494Z,9.96
2018-12-31T08:13:46.809Z,9.96
2018-12-31T08:16:15.114Z,9.97
2018-12-31T08:18:43.409Z,9.98
2018-12-31T08:21:11.725Z,9.97
2018-12-31T08:23:40.021Z,9.98
2018-12-31T08:26:08.325Z,9.99
2018-12-31T08:28:36.621Z,10.02
2018-12-31T08:31:04.935Z,10.03
2018-12-31T08:33:33.253Z,10.06
2018-12-31T08:36:01.551Z,10.07
2018-12-31T08:38:29.876Z,10.06
2018-12-31T08:40:58.194Z,10.08
2018-12-31T08:43:26.502Z,10.11
2018-12-31T08:45:54.804Z,10.14
2018-12-31T08:48:23.114Z,10.16
2018-12-31T08:50:51.408Z,10.15
2018-12-31T08:53:19.735Z,10.17
2018-12-31T08:55:48.047Z,10.17
2018-12-31T08:58:16.591Z,10.20
2018-12-31T09:00:44.913Z,10.20
2018-12-31T09:03:13.208Z,10.20
2018-12-31T09:05:41.514Z,10.24
2018-12-31T09:08:09.808Z,10.27
2018-12-31T09:10:38.118Z,10.31
2018-12-31T09:13:06.410Z,10.33
2018-12-31T09:15:34.961Z,10.35
2018-12-31T09:18:03.284Z,10.37
2018-12-31T09:20:31.580Z,10.37
2018-12-31T09:22:59.893Z,10.38
2018-12-31T09:25:28.437Z,10.40
2018-12-31T09:27:56.760Z,10.43
2018-12-31T09:30:25.065Z,10.44
2018-12-31T09:32:53.382Z,10.42
2018-12-31T09:35:21.929Z,10.38
2018-12-31T09:37:50.222Z,10.35
2018-12-31T09:40:18.541Z,10.36
2018-12-31T09:42:46.839Z,10.36
2018-12-31T09:45:15.163Z,10.41
2018-12-31T09:47:43.471Z,10.43
2018-12-31T09:50:11.787Z,10.48
2018-12-31T09:52:40.100Z,10.55
2018-12-31T09:55:08.408Z,10.62
2018-12-31T09:57:36.714Z,10.71
2018-12-31T10:00:06.701Z,10.81
2018-12-31T10:02:35.013Z,10.85
2018-12-31T10:05:03.392Z,10.86
2018-12-31T10:07:31.699Z,10.80
2018-12-31T10:09:59.992Z,10.69
2018-12-31T10:12:28.548Z,10.61
2018-12-31T10:14:56.852Z,10.59
2018-12-31T10:17:25.418Z,10.57
2018-12-31T10:19:53.975Z,10.61
2018-12-31T10:22:22.552Z,10.67
2018-12-31T10:24:50.854Z,10.75
2018-12-31T10:27:19.184Z,10.84
2018-12-31T10:29:47.736Z,10.90
2018-12-31T10:32:16.046Z,10.91
2018-12-31T10:34:44.340Z,10.92
2018-12-31T10:37:12.648Z,10.98
2018-12-31T10:39:41.227Z,10.98
2018-12-31T10:42:09.541Z,10.95
2018-12-31T10:44:38.114Z,10.94
2018-12-31T10:47:06.454Z,11.01
2018-12-31T10:49:34.759Z,11.08
2018-12-31T10:52:03.062Z,11.09
2018-12-31T10:54:31.427Z,11.08
2018-12-31T10:56:59.735Z,11.05
2018-12-31T10:59:28.279Z,11.04
2018-12-31T11:01:56.597Z,11.06
2018-12-31T11:04:24.971Z,11.09
2018-12-31T11:06:53.283Z,11.01
2018-12-31T11:09:21.596Z,11.00
2018-12-31T11:11:49.882Z,10.97
2018-12-31T11:14:18.196Z,10.96
2018-12-31T11:16:46.489Z,11.01
2018-12-31T11:19:15.045Z,11.04
2018-12-31T11:21:43.338Z,11.09
2018-12-31T11:24:12.753Z,11.07
2018-12-31T11:26:41.131Z,11.06
2018-12-31T11:29:09.823Z,11.03
2018-12-31T11:31:38.378Z,10.96
2018-12-31T11:34:06.918Z,11.01
2018-12-31T11:36:35.231Z,10.99
2018-12-31T11:39:04.163Z,10.95
2018-12-31T11:41:32.487Z,11.02
2018-12-31T11:44:01.021Z,11.06
2018-12-31T11:46:29.339Z,11.05
2018-12-31T11:48:57.654Z,11.04
2018-12-31T11:51:25.958Z,11.04
2018-12-31T11:53:54.269Z,11.04
2018-12-31T11:56:22.573Z,11.04
2018-12-31T11:58:50.894Z,11.09
2018-12-31T12:01:19.376Z,11.15
2018-12-31T12:03:47.684Z,11.14
2018-12-31T12:06:15.974Z,11.14
2018-12-31T12:08:44.293Z,11.14
2018-12-31T12:11:13.033Z,11.16
2018-12-31T12:13:41.586Z,11.18
2018-12-31T12:16:09.891Z,11.22
2018-12-31T12:18:38.430Z,11.18
2018-12-31T12:21:06.740Z,11.20
2018-12-31T12:23:35.030Z,11.22
2018-12-31T12:26:03.347Z,11.24
2018-12-31T12:28:31.655Z,11.25
2018-12-31T12:30:59.988Z,11.24
2018-12-31T12:33:28.280Z,11.25
2018-12-31T12:35:56.588Z,11.27
2018-12-31T12:38:24.897Z,11.30
2018-12-31T12:40:53.457Z,11.31
2018-12-31T12:43:21.775Z,11.28
2018-12-31T12:45:50.331Z,11.28
2018-12-31T12:48:18.641Z,11.27
2018-12-31T12:50:46.939Z,11.33
2018-12-31T12:53:15.267Z,11.34
2018-12-31T12:55:43.572Z,11.28
2018-12-31T12:58:12.122Z,11.26
2018-12-31T13:00:40.444Z,11.26
2018-12-31T13:03:09.240Z,11.22
2018-12-31T13:05:37.566Z,11.19
2018-12-31T13:08:06.139Z,11.17
2018-12-31T13:10:34.439Z,11.09
2018-12-31T13:13:02.751Z,11.08
2018-12-31T13:15:31.334Z,11.07
2018-12-31T13:17:59.656Z,11.07
2018-12-31T13:20:27.974Z,11.07
2018-12-31T13:22:56.271Z,11.09
2018-12-31T13:25:24.851Z,11.11
2018-12-31T13:27:53.418Z,11.12
2018-12-31T13:30:21.743Z,11.14
2018-12-31T13:32:50.040Z,11.18
2018-12-31T13:35:18.371Z,11.21
2018-12-31T13:37:46.661Z,11.24
2018-12-31T13:40:14.955Z,11.19
2018-12-31T13:42:43.262Z,11.11
2018-12-31T13:45:11.570Z,11.06
2018-12-31T13:47:39.889Z,10.97
2018-12-31T13:50:08.206Z,10.98
2018-12-31T13:52:36.510Z,10.94
2018-12-31T13:55:05.447Z,10.95
2018-12-31T13:57:33.761Z,10.99
2018-12-31T14:00:02.069Z,11.04
2018-12-31T14:02:30.625Z,11.07
2018-12-31T14:04:58.954Z,11.11
2018-12-31T14:07:27.430Z,11.15
2018-12-31T14:09:55.755Z,11.19
2018-12-31T14:12:24.062Z,11.21
2018-12-31T14:14:52.381Z,11.22
2018-12-31T14:17:20.693Z,11.24
2018-12-31T14:19:49.195Z,11.25
2018-12-31T14:22:17.508Z,11.23
2018-12-31T14:24:45.815Z,11.24
2018-12-31T14:27:14.109Z,11.23
2018-12-31T14:29:42.657Z,11.20
2018-12-31T14:32:11.496Z,11.14
2018-12-31T14:34:39.807Z,11.07
2018-12-31T14:37:08.115Z,11.03
2018-12-31T14:39:36.417Z,11.03
2018-12-31T14:42:04.748Z,11.01
2018-12-31T14:44:33.037Z,10.98
2018-12-31T14:47:01.363Z,10.93
2018-12-31T14:49:29.667Z,10.89
2018-12-31T14:51:58.237Z,10.90
2018-12-31T14:54:26.539Z,10.89
2018-12-31T14:56:55.707Z,10.87
2018-12-31T14:59:24.282Z,10.86
2018-12-31T15:01:52.595Z,10.82
2018-12-31T15:04:20.886Z,10.79
2018-12-31T15:06:49.426Z,10.79
2018-12-31T15:09:17.752Z,10.78
2018-12-31T15:11:46.055Z,10.77
2018-12-31T15:14:14.382Z,10.76
2018-12-31T15:16:42.698Z,10.74
2018-12-31T15:19:11.264Z,10.75
2018-12-31T15:21:39.579Z,10.69
2018-12-31T15:24:08.248Z,10.68
2018-12-31T15:26:36.563Z,10.62
2018-12-31T15:29:04.890Z,10.60
2018-12-31T15:31:33.211Z,10.59
2018-12-31T15:34:01.522Z,10.59
2018-12-31T15:36:30.068Z,10.60
2018-12-31T15:38:58.644Z,10.59
2018-12-31T15:41:27.186Z,10.58
2018-12-31T15:43:55.490Z,10.54
2018-12-31T15:46:23.789Z,10.49
2018-12-31T15:48:52.365Z,10.48
2018-12-31T15:51:20.659Z,10.45
2018-12-31T15:53:48.965Z,10.42
2018-12-31T15:56:17.512Z,10.36
2018-12-31T15:58:45.819Z,10.37
2018-12-31T16:01:14.140Z,10.39
2018-12-31T16:03:42.630Z,10.40
2018-12-31T16:06:11.186Z,10.40
2018-12-31T16:08:39.723Z,10.38
2018-12-31T16:11:08.279Z,10.38
2018-12-31T16:13:36.590Z,10.35
2018-12-31T16:16:05.672Z,10.28
2018-12-31T16:18:33.982Z,10.25
2018-12-31T16:21:02.284Z,10.22
2018-12-31T16:23:30.869Z,10.21
2018-12-31T16:25:59.412Z,10.21
2018-12-31T16:28:27.706Z,10.27
2018-12-31T16:30:56.319Z,10.32
2018-12-31T16:33:24.571Z,10.27
2018-12-31T16:35:53.140Z,10.21
2018-12-31T16:38:21.446Z,10.20
2018-12-31T16:40:49.981Z,10.18
2018-12-31T16:43:18.308Z,10.21
2018-12-31T16:45:46.607Z,10.21
2018-12-31T16:48:14.993Z,10.22
2018-12-31T16:50:43.294Z,10.21
2018-12-31T16:53:11.834Z,10.20
2018-12-31T16:55:40.427Z,10.20
2018-12-31T16:58:08.733Z,10.20
2018-12-31T17:00:37.053Z,10.14
2018-12-31T17:03:05.611Z,10.14
2018-12-31T17:05:33.917Z,10.14
2018-12-31T17:08:02.229Z,10.15
2018-12-31T17:10:30.774Z,10.13
2018-12-31T17:12:59.092Z,10.11
2018-12-31T17:15:27.706Z,10.11
2018-12-31T17:17:56.967Z,10.12
2018-12-31T17:20:25.252Z,10.12
2018-12-31T17:22:53.739Z,10.14
2018-12-31T17:25:22.296Z,10.13
2018-12-31T17:27:50.871Z,10.15
2018-12-31T17:30:19.175Z,10.14
2018-12-31T17:32:47.494Z,10.15
2018-12-31T17:35:16.091Z,10.21
2018-12-31T17:37:44.414Z,10.25
2018-12-31T17:40:12.711Z,10.22
2018-12-31T17:42:41.018Z,10.20
2018-12-31T17:45:09.327Z,10.21
2018-12-31T17:47:37.890Z,10.23
2018-12-31T17:50:07.337Z,10.26
2018-12-31T17:52:35.640Z,10.27
2018-12-31T17:55:04.024Z,10.29
2018-12-31T17:57:32.316Z,10.25
2018-12-31T18:00:00.668Z,10.28
2018-12-31T18:02:28.937Z,10.30
2018-12-31T18:04:57.260Z,10.28
2018-12-31T18:07:25.575Z,10.25
2018-12-31T18:09:53.909Z,10.26
2018-12-31T18:12:22.202Z,10.27
2018-12-31T18:14:50.907Z,10.28
2018-12-31T18:17:19.217Z,10.26
2018-12-31T18:19:47.758Z,10.26
2018-12-31T18:22:16.093Z,10.26
2018-12-31T18:24:44.409Z,10.28
2018-12-31T18:27:12.736Z,10.29
2018-12-31T18:29:41.271Z,10.30
2018-12-31T18:32:09.580Z,10.30
2018-12-31T18:34:37.872Z,10.26
2018-12-31T18:37:06.175Z,10.23
2018-12-31T18:39:34.497Z,10.22
2018-12-31T18:42:02.814Z,10.21
2018-12-31T18:44:31.132Z,10.18
2018-12-31T18:46:59.671Z,10.17
2018-12-31T18:49:27.967Z,10.14
2018-12-31T18:51:56.542Z,10.06
2018-12-31T18:54:25.108Z,9.99
2018-12-31T18:56:53.427Z,9.99
2018-12-31T18:59:21.978Z,9.98
2018-12-31T19:01:50.293Z,9.98
2018-12-31T19:04:18.594Z,9.95
2018-12-31T19:06:47.136Z,9.93
2018-12-31T19:09:15.673Z,9.90
2018-12-31T19:11:44.035Z,9.79
2018-12-31T19:14:12.332Z,9.79
2018-12-31T19:16:40.891Z,9.79
2018-12-31T19:19:09.189Z,9.75
2018-12-31T19:21:37.660Z,9.75
2018-12-31T19:24:05.975Z,9.70
2018-12-31T19:26:34.507Z,9.70
2018-12-31T19:29:02.832Z,9.71
2018-12-31T19:31:31.123Z,9.71
2018-12-31T19:33:59.514Z,9.70
2018-12-31T19:36:27.880Z,9.68
2018-12-31T19:38:56.114Z,9.64
2018-12-31T19:41:24.440Z,9.61
2018-12-31T19:43:52.731Z,9.64
2018-12-31T19:46:21.051Z,9.60
2018-12-31T19:48:49.348Z,9.64
2018-12-31T19:51:17.641Z,9.64
2018-12-31T19:53:45.950Z,9.77
2018-12-31T19:56:14.240Z,9.77
2018-12-31T19:58:42.554Z,9.75
2018-12-31T20:01:11.130Z,9.77
2018-12-31T20:03:39.457Z,9.77
2018-12-31T20:06:07.744Z,9.75
2018-12-31T20:08:36.042Z,9.70
2018-12-31T20:11:04.349Z,9.70
2018-12-31T20:13:32.645Z,9.68
2018-12-31T20:16:00.950Z,9.66
2018-12-31T20:18:29.236Z,9.64
2018-12-31T20:20:57.540Z,9.61
2018-12-31T20:23:25.850Z,9.61
2018-12-31T20:25:54.158Z,9.60
2018-12-31T20:28:22.743Z,9.59
2018-12-31T20:30:51.295Z,9.60
2018-12-31T20:33:19.607Z,9.61
2018-12-31T20:35:47.920Z,9.62
2018-12-31T20:38:16.256Z,9.63
2018-12-31T20:40:44.560Z,9.69
2018-12-31T20:43:14.436Z,9.68
2018-12-31T20:45:42.764Z,9.60
2018-12-31T20:48:11.070Z,9.58
2018-12-31T20:50:39.378Z,9.59
2018-12-31T20:53:07.695Z,9.58
2018-12-31T20:55:36.235Z,9.58
2018-12-31T20:58:04.547Z,9.61
2018-12-31T21:00:32.866Z,9.62
2018-12-31T21:03:01.184Z,9.61
2018-12-31T21:05:29.482Z,9.61
2018-12-31T21:07:57.815Z,9.63
2018-12-31T21:10:26.094Z,9.64
2018-12-31T21:12:54.638Z,9.65
2018-12-31T21:15:23.190Z,9.63
2018-12-31T21:17:51.741Z,9.58
2018-12-31T21:20:20.919Z,9.59
2018-12-31T21:22:49.222Z,9.58
2018-12-31T21:25:17.512Z,9.61
2018-12-31T21:27:45.826Z,9.68
2018-12-31T21:30:14.129Z,9.71
2018-12-31T21:32:42.454Z,9.73
2018-12-31T21:35:10.741Z,9.74
2018-12-31T21:37:39.226Z,9.76
2018-12-31T21:40:08.567Z,9.75
2018-12-31T21:42:36.887Z,9.75
2018-12-31T21:45:05.788Z,9.76
2018-12-31T21:47:34.118Z,9.75
2018-12-31T21:50:02.421Z,9.77
2018-12-31T21:52:30.727Z,9.78
2018-12-31T21:54:59.027Z,9.82
2018-12-31T21:57:27.566Z,9.84
2018-12-31T21:59:56.113Z,9.83
2018-12-31T22:02:24.410Z,9.83
2018-12-31T22:04:53.023Z,9.86
2018-12-31T22:07:21.338Z,9.87
2018-12-31T22:09:49.637Z,9.85
2018-12-31T22:12:17.958Z,9.84
2018-12-31T22:14:46.332Z,9.80
2018-12-31T22:17:14.902Z,9.79
2018-12-31T22:19:43.454Z,9.80
2018-12-31T22:22:12.006Z,9.76
2018-12-31T22:24:40.297Z,9.74
2018-12-31T22:27:08.601Z,9.68
2018-12-31T22:29:36.888Z,9.59
2018-12-31T22:32:05.486Z,9.53
2018-12-31T22:34:34.016Z,9.55
2018-12-31T22:37:02.340Z,9.58
2018-12-31T22:39:30.625Z,9.56
2018-12-31T22:41:58.933Z,9.53
2018-12-31T22:44:27.238Z,9.50
2018-12-31T22:46:55.545Z,9.42
2018-12-31T22:49:23.853Z,9.44
2018-12-31T22:51:52.158Z,9.36
2018-12-31T22:54:20.462Z,9.36
2018-12-31T22:56:48.764Z,9.37
2018-12-31T22:59:17.159Z,9.32
2018-12-31T23:01:45.745Z,9.33
2018-12-31T23:04:14.051Z,9.34
2018-12-31T23:06:42.364Z,9.36
2018-12-31T23:09:11.424Z,9.37
2018-12-31T23:11:40.115Z,9.44
2018-12-31T23:14:08.410Z,9.39
2018-12-31T23:16:36.739Z,9.41
2018-12-31T23:19:05.283Z,9.44
2018-12-31T23:21:33.832Z,9.43
2018-12-31T23:24:02.215Z,9.32
2018-12-31T23:26:30.590Z,9.33
2018-12-31T23:28:59.145Z,9.34
2018-12-31T23:31:27.453Z,9.37
2018-12-31T23:33:55.916Z,9.39
2018-12-31T23:36:24.221Z,9.39
2018-12-31T23:38:53.072Z,9.41
2018-12-31T23:41:21.374Z,9.34
2018-12-31T23:43:49.677Z,9.14
2018-12-31T23:46:17.968Z,9.14
2018-12-31T23:48:46.272Z,9.18
2018-12-31T23:51:14.956Z,9.14
2018-12-31T23:53:43.242Z,9.09
2018-12-31T23:56:11.811Z,9.04
2018-12-31T23:58:40.115Z,9.09
